createdAt,value
2023-05-04T00:00:30.483Z,101851.44
2023-05-04T00:01:22.519Z,101856.56
2023-05-04T00:02:14.401Z,101852.19
2023-05-04T00:03:05.967Z,101852.19
2023-05-04T00:03:57.765Z,101844.44
2023-05-04T00:04:52.494Z,101848.81
2023-05-04T00:05:44.116Z,101849.59
2023-05-04T00:06:35.905Z,101845.03
2023-05-04T00:07:27.403Z,101844.22
2023-05-04T00:08:18.924Z,101839.88
2023-05-04T00:09:15.114Z,101844.06
2023-05-04T00:10:07.776Z,101846.31
2023-05-04T00:10:59.615Z,101838.56
2023-05-04T00:11:51.226Z,101844.31
2023-05-04T00:12:43.015Z,101840.75
2023-05-04T00:13:34.458Z,101838.88
2023-05-04T00:14:25.988Z,101837.09
2023-05-04T00:15:18.525Z,101838.59
2023-05-04T00:16:10.751Z,101839.22
2023-05-04T00:17:06.309Z,101835.84
2023-05-04T00:17:57.860Z,101829.97
2023-05-04T00:18:49.404Z,101835.13
2023-05-04T00:19:42.289Z,101833.25
2023-05-04T00:20:33.822Z,101833.34
2023-05-04T00:21:26.498Z,101831.84
2023-05-04T00:22:18.601Z,101835.31
2023-05-04T00:23:10.080Z,101835.31
2023-05-04T00:24:02.360Z,101835.31
2023-05-04T00:24:53.791Z,101829.97
2023-05-04T00:25:45.469Z,101834.31
2023-05-04T00:26:36.935Z,101831.75
2023-05-04T00:27:28.411Z,101831.47
2023-05-04T00:28:19.908Z,101833.00
2023-05-04T00:29:11.411Z,101834.47
2023-05-04T00:30:03.531Z,101828.22
2023-05-04T00:30:58.728Z,101832.41
2023-05-04T00:31:50.562Z,101828.66
2023-05-04T00:32:42.144Z,101830.25
2023-05-04T00:33:33.600Z,101829.00
2023-05-04T00:34:25.147Z,101831.59
2023-05-04T00:35:16.876Z,101829.72
2023-05-04T00:36:08.635Z,101827.78
2023-05-04T00:37:03.198Z,101825.09
2023-05-04T00:37:54.910Z,101825.53
2023-05-04T00:38:56.185Z,101826.34
2023-05-04T00:39:47.707Z,101826.34
2023-05-04T00:40:43.077Z,101821.06
2023-05-04T00:41:35.704Z,101817.78
2023-05-04T00:42:27.380Z,101827.03
2023-05-04T00:43:22.702Z,101821.06
2023-05-04T00:44:14.294Z,101828.94
2023-05-04T00:45:06.333Z,101826.53
2023-05-04T00:45:57.884Z,101816.34
2023-05-04T00:46:52.423Z,101820.72
2023-05-04T00:47:44.389Z,101821.69
2023-05-04T00:48:38.431Z,101815.56
2023-05-04T00:49:30.368Z,101814.69
2023-05-04T00:50:22.068Z,101825.91
2023-05-04T00:51:17.085Z,101817.97
2023-05-04T00:52:10.607Z,101812.72
2023-05-04T00:53:09.664Z,101811.53
2023-05-04T00:54:01.632Z,101818.41
2023-05-04T00:54:57.107Z,101812.34
2023-05-04T00:55:48.840Z,101819.06
2023-05-04T00:56:43.261Z,101812.72
2023-05-04T00:57:34.948Z,101810.84
2023-05-04T00:58:26.470Z,101805.59
2023-05-04T00:59:17.940Z,101814.22
2023-05-04T01:00:13.111Z,101811.66
2023-05-04T01:01:08.170Z,101804.88
2023-05-04T01:02:05.377Z,101806.75
2023-05-04T01:02:58.733Z,101806.75
2023-05-04T01:03:55.648Z,101805.78
2023-05-04T01:04:54.560Z,101803.03
2023-05-04T01:06:01.288Z,101805.59
2023-05-04T01:07:01.927Z,101809.16
2023-05-04T01:08:04.791Z,101813.44
2023-05-04T01:09:11.078Z,101819.56
2023-05-04T01:10:14.528Z,101809.69
2023-05-04T01:11:22.256Z,101810.38
2023-05-04T01:12:18.259Z,101821.44
2023-05-04T01:13:13.027Z,101808.44
2023-05-04T01:14:07.038Z,101810.94
2023-05-04T01:15:00.473Z,101802.91
2023-05-04T01:15:55.059Z,101815.81
2023-05-04T01:16:48.740Z,101806.22
2023-05-04T01:17:40.265Z,101811.84
2023-05-04T01:18:32.878Z,101805.06
2023-05-04T01:19:29.021Z,101801.06
2023-05-04T01:20:20.492Z,101809.31
2023-05-04T01:21:12.114Z,101797.22
2023-05-04T01:22:03.582Z,101804.69
2023-05-04T01:22:57.441Z,101801.03
2023-05-04T01:23:49.117Z,101805.13
2023-05-04T01:24:45.060Z,101806.91
2023-05-04T01:25:49.507Z,101798.09
2023-05-04T01:26:46.351Z,101803.34
2023-05-04T01:27:47.440Z,101798.91
2023-05-04T01:28:45.866Z,101803.97
2023-05-04T01:29:54.628Z,101797.00
2023-05-04T01:30:54.025Z,101799.53
2023-05-04T01:31:47.179Z,101803.09
2023-05-04T01:32:41.881Z,101794.72
2023-05-04T01:33:35.641Z,101789.63
2023-05-04T01:34:27.646Z,101793.13
2023-05-04T01:35:19.395Z,101794.78
2023-05-04T01:36:11.873Z,101796.38
2023-05-04T01:37:04.290Z,101798.28
2023-05-04T01:37:55.989Z,101792.94
2023-05-04T01:38:48.852Z,101786.88
2023-05-04T01:39:42.740Z,101794.63
2023-05-04T01:40:34.149Z,101789.63
2023-05-04T01:41:28.740Z,101790.53
2023-05-04T01:42:20.279Z,101791.34
2023-05-04T01:43:11.722Z,101793.81
2023-05-04T01:44:04.483Z,101786.69
2023-05-04T01:44:56.329Z,101785.09
2023-05-04T01:45:48.150Z,101786.97
2023-05-04T01:46:42.454Z,101789.56
2023-05-04T01:47:34.194Z,101794.78
2023-05-04T01:48:27.496Z,101791.34
2023-05-04T01:49:19.815Z,101790.44
2023-05-04T01:50:11.303Z,101787.94
2023-05-04T01:51:02.884Z,101787.16
2023-05-04T01:51:55.133Z,101792.38
2023-05-04T01:52:46.549Z,101791.41
2023-05-04T01:53:38.244Z,101785.25
2023-05-04T01:54:29.930Z,101784.47
2023-05-04T01:55:22.198Z,101782.59
2023-05-04T01:56:15.036Z,101784.28
2023-05-04T01:57:06.532Z,101781.69
2023-05-04T01:57:58.265Z,101780.91
2023-05-04T01:58:50.136Z,101783.59
2023-05-04T01:59:41.886Z,101786.25
2023-05-04T02:00:33.625Z,101781.00
2023-05-04T02:01:25.176Z,101785.09
2023-05-04T02:02:16.675Z,101786.00
2023-05-04T02:03:09.373Z,101784.09
2023-05-04T02:04:01.634Z,101783.31
2023-05-04T02:04:53.436Z,101790.06
2023-05-04T02:05:45.261Z,101781.34
2023-05-04T02:06:36.781Z,101784.72
2023-05-04T02:07:28.277Z,101781.34
2023-05-04T02:08:19.845Z,101785.53
2023-05-04T02:09:11.625Z,101784.72
2023-05-04T02:10:04.149Z,101787.22
2023-05-04T02:10:57.618Z,101788.84
2023-05-04T02:11:50.229Z,101787.94
2023-05-04T02:12:43.036Z,101786.94
2023-05-04T02:13:34.724Z,101790.41
2023-05-04T02:14:26.448Z,101789.53
2023-05-04T02:15:17.970Z,101796.38
2023-05-04T02:16:09.520Z,101789.25
2023-05-04T02:17:01.177Z,101795.31
2023-05-04T02:17:52.682Z,101791.03
2023-05-04T02:18:45.436Z,101797.78
2023-05-04T02:19:36.886Z,101801.88
2023-05-04T02:20:28.608Z,101798.31
2023-05-04T02:21:21.537Z,101801.34
2023-05-04T02:22:13.021Z,101800.44
2023-05-04T02:23:07.292Z,101808.78
2023-05-04T02:23:59.367Z,101798.34
2023-05-04T02:24:53.759Z,101806.19
2023-05-04T02:25:46.740Z,101806.88
2023-05-04T02:26:38.168Z,101805.72
2023-05-04T02:27:30.850Z,101815.84
2023-05-04T02:28:22.551Z,101808.66
2023-05-04T02:29:17.893Z,101804.19
2023-05-04T02:30:09.923Z,101800.00
2023-05-04T02:31:01.377Z,101802.69
2023-05-04T02:31:53.439Z,101804.38
2023-05-04T02:32:45.115Z,101805.97
2023-05-04T02:33:36.860Z,101798.41
2023-05-04T02:34:28.318Z,101799.38
2023-05-04T02:35:19.998Z,101795.63
2023-05-04T02:36:11.448Z,101801.78
2023-05-04T02:37:04.679Z,101794.16
2023-05-04T02:37:59.256Z,101795.94
2023-05-04T02:38:51.264Z,101794.16
2023-05-04T02:39:42.983Z,101796.53
2023-05-04T02:40:34.675Z,101798.34
2023-05-04T02:41:27.022Z,101795.22
2023-05-04T02:42:19.154Z,101802.28
2023-05-04T02:43:10.706Z,101790.97
2023-05-04T02:44:02.179Z,101791.56
2023-05-04T02:44:54.950Z,101791.47
2023-05-04T02:45:48.810Z,101791.28
2023-05-04T02:46:41.229Z,101793.25
2023-05-04T02:47:33.142Z,101784.72
2023-05-04T02:48:26.220Z,101790.66
2023-05-04T02:49:17.981Z,101796.75
2023-05-04T02:50:09.610Z,101797.97
2023-05-04T02:51:01.107Z,101798.03
2023-05-04T02:51:52.574Z,101797.34
2023-05-04T02:52:44.364Z,101793.47
2023-05-04T02:53:35.895Z,101790.09
2023-05-04T02:54:27.407Z,101795.94
2023-05-04T02:55:19.165Z,101793.00
2023-05-04T02:56:10.935Z,101793.91
2023-05-04T02:57:03.821Z,101795.38
2023-05-04T02:57:55.876Z,101783.22
2023-05-04T02:58:47.517Z,101793.41
2023-05-04T02:59:39.252Z,101785.00
2023-05-04T03:00:30.850Z,101786.84
2023-05-04T03:01:22.502Z,101788.75
2023-05-04T03:02:14.160Z,101783.47
2023-05-04T03:03:05.931Z,101778.25
2023-05-04T03:03:57.811Z,101788.44
2023-05-04T03:04:49.472Z,101785.88
2023-05-04T03:05:40.870Z,101783.81
2023-05-04T03:06:32.385Z,101780.16
2023-05-04T03:07:24.452Z,101782.91
2023-05-04T03:08:16.142Z,101774.13
2023-05-04T03:09:10.133Z,101782.72
2023-05-04T03:10:01.994Z,101781.84
2023-05-04T03:10:53.493Z,101787.19
2023-05-04T03:11:47.001Z,101778.75
2023-05-04T03:12:38.590Z,101782.50
2023-05-04T03:13:30.278Z,101781.81
2023-05-04T03:14:21.957Z,101780.22
2023-05-04T03:15:13.326Z,101778.69
2023-05-04T03:16:05.968Z,101767.50
2023-05-04T03:16:59.326Z,101780.28
2023-05-04T03:17:51.095Z,101775.25
2023-05-04T03:18:42.999Z,101774.94
2023-05-04T03:19:35.091Z,101775.66
2023-05-04T03:20:28.813Z,101775.56
2023-05-04T03:21:22.431Z,101774.50
2023-05-04T03:22:14.059Z,101776.53
2023-05-04T03:23:05.966Z,101768.44
2023-05-04T03:23:58.426Z,101769.34
2023-05-04T03:24:50.118Z,101763.47
2023-05-04T03:25:42.831Z,101763.56
2023-05-04T03:26:34.376Z,101761.69
2023-05-04T03:27:25.901Z,101762.59
2023-05-04T03:28:17.440Z,101761.50
2023-05-04T03:29:09.356Z,101763.19
2023-05-04T03:30:01.015Z,101762.22
2023-05-04T03:30:53.236Z,101764.69
2023-05-04T03:31:46.194Z,101757.84
2023-05-04T03:32:41.137Z,101760.72
2023-05-04T03:33:33.090Z,101761.53
2023-05-04T03:34:24.646Z,101762.53
2023-05-04T03:35:25.012Z,101760.34
2023-05-04T03:36:18.941Z,101757.84
2023-05-04T03:37:10.518Z,101761.34
2023-05-04T03:38:02.049Z,101754.47
2023-05-04T03:38:56.044Z,101752.00
2023-05-04T03:39:48.085Z,101760.25
2023-05-04T03:40:39.560Z,101754.22
2023-05-04T03:41:31.021Z,101760.16
2023-05-04T03:42:23.727Z,101755.63
2023-05-04T03:43:15.172Z,101759.19
2023-05-04T03:44:06.761Z,101755.88
2023-05-04T03:45:00.729Z,101766.00
2023-05-04T03:45:54.693Z,101754.91
2023-05-04T03:46:46.403Z,101770.56
2023-05-04T03:47:37.953Z,101761.84
2023-05-04T03:48:29.681Z,101757.41
2023-05-04T03:49:22.951Z,101761.75
2023-05-04T03:50:14.568Z,101753.59
2023-05-04T03:51:07.513Z,101750.16
2023-05-04T03:51:59.203Z,101757.69
2023-05-04T03:52:51.684Z,101748.25
2023-05-04T03:53:45.991Z,101749.97
2023-05-04T03:54:40.399Z,101747.47
2023-05-04T03:55:33.215Z,101748.56
2023-05-04T03:56:24.890Z,101756.00
2023-05-04T03:57:16.329Z,101748.97
2023-05-04T03:58:08.705Z,101747.28
2023-05-04T03:59:00.299Z,101754.81
2023-05-04T03:59:57.580Z,101750.56
2023-05-04T04:00:49.862Z,101742.53
2023-05-04T04:01:42.039Z,101744.22
2023-05-04T04:02:34.002Z,101746.00
2023-05-04T04:03:25.587Z,101737.97
2023-05-04T04:04:17.720Z,101741.47
2023-05-04T04:05:09.412Z,101741.28
2023-05-04T04:06:06.316Z,101741.97
2023-05-04T04:07:00.379Z,101741.28
2023-05-04T04:07:53.643Z,101737.00
2023-05-04T04:08:45.628Z,101742.25
2023-05-04T04:09:37.220Z,101740.47
2023-05-04T04:10:28.907Z,101738.09
2023-05-04T04:11:20.510Z,101737.50
2023-05-04T04:12:12.595Z,101732.34
2023-05-04T04:13:04.260Z,101735.72
2023-05-04T04:13:55.816Z,101739.09
2023-05-04T04:14:52.383Z,101739.09
2023-05-04T04:15:45.674Z,101741.66
2023-05-04T04:16:37.387Z,101742.66
2023-05-04T04:17:29.118Z,101745.09
2023-05-04T04:18:22.322Z,101749.47
2023-05-04T04:19:13.935Z,101741.06
2023-05-04T04:20:06.240Z,101753.75
2023-05-04T04:20:58.330Z,101745.22
2023-05-04T04:21:52.151Z,101740.88
2023-05-04T04:22:44.009Z,101747.78
2023-05-04T04:23:35.645Z,101745.22
2023-05-04T04:24:27.105Z,101750.06
2023-05-04T04:25:18.655Z,101749.19
2023-05-04T04:26:10.320Z,101745.81
2023-05-04T04:27:09.815Z,101744.91
2023-05-04T04:28:04.563Z,101744.44
2023-05-04T04:28:56.054Z,101752.34
2023-05-04T04:29:47.539Z,101749.78
2023-05-04T04:30:39.016Z,101759.47
2023-05-04T04:31:30.586Z,101755.81
2023-05-04T04:32:22.765Z,101758.56
2023-05-04T04:33:15.053Z,101761.94
2023-05-04T04:34:06.513Z,101757.88
2023-05-04T04:34:57.942Z,101753.72
2023-05-04T04:35:49.661Z,101750.34
2023-05-04T04:36:41.132Z,101753.03
2023-05-04T04:37:32.903Z,101755.69
2023-05-04T04:38:24.840Z,101753.72
2023-05-04T04:39:17.016Z,101758.00
2023-05-04T04:40:10.717Z,101758.00
2023-05-04T04:41:03.335Z,101748.25
2023-05-04T04:41:54.795Z,101758.75
2023-05-04T04:42:48.717Z,101759.00
2023-05-04T04:43:40.475Z,101759.97
2023-05-04T04:44:31.882Z,101758.88
2023-05-04T04:45:23.669Z,101752.94
2023-05-04T04:46:15.427Z,101757.09
2023-05-04T04:47:09.310Z,101764.13
2023-05-04T04:48:01.964Z,101756.50
2023-05-04T04:48:55.579Z,101761.75
2023-05-04T04:49:47.708Z,101756.00
2023-05-04T04:50:41.066Z,101763.53
2023-05-04T04:51:32.897Z,101760.06
2023-05-04T04:52:25.126Z,101769.88
2023-05-04T04:53:18.929Z,101765.69
2023-05-04T04:54:11.231Z,101764.19
2023-05-04T04:55:04.161Z,101763.50
2023-05-04T04:55:55.612Z,101766.09
2023-05-04T04:56:47.110Z,101762.91
2023-05-04T04:57:38.546Z,101765.59
2023-05-04T04:58:30.032Z,101766.56
2023-05-04T04:59:24.823Z,101766.56
2023-05-04T05:00:17.226Z,101763.28
2023-05-04T05:01:11.645Z,101766.75
2023-05-04T05:02:04.204Z,101756.44
2023-05-04T05:02:55.788Z,101761.59
2023-05-04T05:03:47.417Z,101760.88
2023-05-04T05:04:40.519Z,101750.69
2023-05-04T05:05:32.231Z,101758.59
2023-05-04T05:06:24.014Z,101757.69
2023-05-04T05:07:15.397Z,101753.69
2023-05-04T05:08:06.817Z,101760.75
2023-05-04T05:08:58.225Z,101758.25
2023-05-04T05:09:51.995Z,101760.06
2023-05-04T05:10:44.147Z,101762.72
2023-05-04T05:11:37.510Z,101764.69
2023-05-04T05:12:28.971Z,101763.88
2023-05-04T05:13:20.854Z,101770.03
2023-05-04T05:14:12.707Z,101765.06
2023-05-04T05:15:04.898Z,101770.41
2023-05-04T05:15:56.332Z,101768.81
2023-05-04T05:16:47.774Z,101775.56
2023-05-04T05:17:40.866Z,101771.56
2023-05-04T05:18:32.916Z,101771.69
2023-05-04T05:19:25.374Z,101774.44
2023-05-04T05:20:16.740Z,101769.66
2023-05-04T05:21:09.148Z,101773.94
2023-05-04T05:22:00.563Z,101776.78
2023-05-04T05:22:52.193Z,101773.56
2023-05-04T05:23:45.956Z,101781.50
2023-05-04T05:24:37.471Z,101773.34
2023-05-04T05:25:29.980Z,101767.56
2023-05-04T05:26:21.895Z,101769.53
2023-05-04T05:27:13.445Z,101768.00
2023-05-04T05:28:05.188Z,101771.66
2023-05-04T05:29:01.666Z,101768.34
2023-05-04T05:29:53.161Z,101772.00
2023-05-04T05:30:44.713Z,101774.06
2023-05-04T05:31:36.140Z,101766.50
2023-05-04T05:32:30.647Z,101771.13
2023-05-04T05:33:22.245Z,101761.06
2023-05-04T05:34:17.025Z,101770.75
2023-05-04T05:35:09.571Z,101772.03
2023-05-04T05:36:01.057Z,101767.19
2023-05-04T05:36:53.349Z,101770.94
2023-05-04T05:37:44.920Z,101776.34
2023-05-04T05:38:36.291Z,101768.06
2023-05-04T05:39:28.806Z,101777.06
2023-05-04T05:40:22.014Z,101773.91
2023-05-04T05:41:16.632Z,101770.88
2023-05-04T05:42:08.341Z,101768.66
2023-05-04T05:43:00.941Z,101766.41
2023-05-04T05:43:52.321Z,101764.88
2023-05-04T05:44:43.729Z,101766.97
2023-05-04T05:45:35.222Z,101764.75
2023-05-04T05:46:28.027Z,101760.78
2023-05-04T05:47:20.524Z,101761.13
2023-05-04T05:48:11.989Z,101757.06
2023-05-04T05:49:05.853Z,101752.97
2023-05-04T05:49:57.302Z,101755.81
2023-05-04T05:50:48.744Z,101753.53
2023-05-04T05:51:40.187Z,101757.31
2023-05-04T05:52:31.575Z,101747.13
2023-05-04T05:53:23.064Z,101746.56
2023-05-04T05:54:15.039Z,101747.78
2023-05-04T05:55:06.837Z,101745.50
2023-05-04T05:55:58.381Z,101742.34
2023-05-04T05:56:49.953Z,101745.25
2023-05-04T05:57:41.369Z,101741.09
2023-05-04T05:58:35.632Z,101744.00
2023-05-04T05:59:29.406Z,101736.38
2023-05-04T06:00:21.140Z,101745.38
2023-05-04T06:01:13.265Z,101742.22
2023-05-04T06:02:05.895Z,101738.97
2023-05-04T06:02:57.354Z,101742.66
2023-05-04T06:03:49.024Z,101743.78
2023-05-04T06:04:41.965Z,101743.25
2023-05-04T06:05:34.163Z,101739.13
2023-05-04T06:06:25.716Z,101734.97
2023-05-04T06:07:19.720Z,101738.75
2023-05-04T06:08:11.100Z,101738.09
2023-05-04T06:09:02.624Z,101740.91
2023-05-04T06:09:54.093Z,101730.84
2023-05-04T06:10:48.526Z,101739.72
2023-05-04T06:11:39.935Z,101735.50
2023-05-04T06:12:32.431Z,101741.63
2023-05-04T06:13:23.937Z,101737.56
2023-05-04T06:14:15.449Z,101739.56
2023-05-04T06:15:08.388Z,101734.50
2023-05-04T06:15:59.938Z,101729.59
2023-05-04T06:16:54.579Z,101732.41
2023-05-04T06:17:46.234Z,101733.44
2023-05-04T06:18:37.650Z,101730.97
2023-05-04T06:19:30.959Z,101726.84
2023-05-04T06:20:24.346Z,101725.19
2023-05-04T06:21:15.822Z,101724.38
2023-05-04T06:22:07.619Z,101719.38
2023-05-04T06:22:59.087Z,101720.28
2023-05-04T06:23:52.821Z,101718.66
2023-05-04T06:24:44.348Z,101714.41
2023-05-04T06:25:35.877Z,101717.88
2023-05-04T06:26:27.304Z,101717.19
2023-05-04T06:27:18.946Z,101715.41
2023-05-04T06:28:10.423Z,101709.41
2023-05-04T06:29:04.879Z,101713.78
2023-05-04T06:29:56.660Z,101713.13
2023-05-04T06:30:48.400Z,101721.88
2023-05-04T06:31:41.745Z,101717.72
2023-05-04T06:32:33.498Z,101717.03
2023-05-04T06:33:24.992Z,101724.94
2023-05-04T06:34:17.504Z,101720.81
2023-05-04T06:35:09.421Z,101712.41
2023-05-04T06:36:03.490Z,101710.69
2023-05-04T06:36:54.904Z,101705.69
2023-05-04T06:37:46.373Z,101705.88
2023-05-04T06:38:40.008Z,101708.69
2023-05-04T06:39:31.420Z,101713.19
2023-05-04T06:40:22.834Z,101710.84
2023-05-04T06:41:14.373Z,101713.69
2023-05-04T06:42:06.261Z,101712.06
2023-05-04T06:43:01.615Z,101712.31
2023-05-04T06:43:53.058Z,101709.22
2023-05-04T06:44:44.500Z,101710.41
2023-05-04T06:45:36.827Z,101719.38
2023-05-04T06:46:28.420Z,101712.53
2023-05-04T06:47:19.897Z,101711.75
2023-05-04T06:48:11.989Z,101717.22
2023-05-04T06:49:04.466Z,101724.31
2023-05-04T06:49:55.858Z,101721.88
2023-05-04T06:50:49.807Z,101717.94
2023-05-04T06:51:44.180Z,101719.84
2023-05-04T06:52:39.750Z,101718.31
2023-05-04T06:53:31.324Z,101716.03
2023-05-04T06:54:25.422Z,101715.25
2023-05-04T06:55:16.978Z,101716.16
2023-05-04T06:56:09.779Z,101716.19
2023-05-04T06:57:04.480Z,101713.53
2023-05-04T06:57:55.938Z,101717.09
2023-05-04T06:58:47.724Z,101710.22
2023-05-04T06:59:39.277Z,101707.81
2023-05-04T07:00:31.490Z,101703.59
2023-05-04T07:01:23.079Z,101704.53
2023-05-04T07:02:14.595Z,101709.81
2023-05-04T07:03:06.258Z,101706.41
2023-05-04T07:03:58.936Z,101708.16
2023-05-04T07:04:52.502Z,101710.88
2023-05-04T07:05:45.281Z,101713.00
2023-05-04T07:06:37.002Z,101708.75
2023-05-04T07:07:28.489Z,101713.94
2023-05-04T07:08:19.903Z,101707.19
2023-05-04T07:09:12.398Z,101706.53
2023-05-04T07:10:05.568Z,101699.16
2023-05-04T07:10:57.160Z,101700.56
2023-05-04T07:11:51.500Z,101700.66
2023-05-04T07:12:45.273Z,101703.31
2023-05-04T07:13:38.783Z,101703.25
2023-05-04T07:14:30.625Z,101700.13
2023-05-04T07:15:22.120Z,101704.59
2023-05-04T07:16:13.656Z,101706.31
2023-05-04T07:17:09.988Z,101695.84
2023-05-04T07:18:01.535Z,101702.00
2023-05-04T07:18:53.192Z,101698.88
2023-05-04T07:19:44.700Z,101700.09
2023-05-04T07:20:36.644Z,101695.03
2023-05-04T07:21:29.344Z,101696.59
2023-05-04T07:22:21.642Z,101692.41
2023-05-04T07:23:13.180Z,101692.53
2023-05-04T07:24:07.218Z,101694.28
2023-05-04T07:24:59.746Z,101695.16
2023-05-04T07:25:53.171Z,101695.13
2023-05-04T07:26:45.159Z,101689.09
2023-05-04T07:27:36.765Z,101684.94
2023-05-04T07:28:28.276Z,101680.63
2023-05-04T07:29:19.748Z,101679.78
2023-05-04T07:30:12.299Z,101682.66
2023-05-04T07:31:06.146Z,101684.44
2023-05-04T07:31:57.694Z,101679.38
2023-05-04T07:32:49.237Z,101679.41
2023-05-04T07:33:43.477Z,101683.72
2023-05-04T07:34:45.232Z,101681.19
2023-05-04T07:35:37.395Z,101682.97
2023-05-04T07:36:30.034Z,101682.13
2023-05-04T07:37:21.477Z,101685.03
2023-05-04T07:38:12.879Z,101678.34
2023-05-04T07:39:07.573Z,101671.63
2023-05-04T07:40:05.833Z,101677.78
2023-05-04T07:40:57.967Z,101678.63
2023-05-04T07:41:51.632Z,101682.59
2023-05-04T07:42:43.209Z,101676.75
2023-05-04T07:43:35.964Z,101675.13
2023-05-04T07:44:27.420Z,101679.25
2023-05-04T07:45:18.879Z,101667.91
2023-05-04T07:46:10.560Z,101672.34
2023-05-04T07:47:02.111Z,101667.06
2023-05-04T07:47:56.369Z,101669.91
2023-05-04T07:48:49.285Z,101670.16
2023-05-04T07:49:42.505Z,101669.44
2023-05-04T07:50:34.233Z,101667.13
2023-05-04T07:51:27.827Z,101668.25
2023-05-04T07:52:22.081Z,101666.53
2023-05-04T07:53:17.705Z,101658.69
2023-05-04T07:54:09.465Z,101666.91
2023-05-04T07:55:01.017Z,101663.28
2023-05-04T07:55:57.161Z,101661.75
2023-05-04T07:56:48.601Z,101659.22
2023-05-04T07:57:40.025Z,101660.22
2023-05-04T07:58:31.529Z,101655.84
2023-05-04T07:59:22.934Z,101661.91
2023-05-04T08:00:16.313Z,101651.66
2023-05-04T08:01:08.834Z,101652.84
2023-05-04T08:02:04.107Z,101652.44
2023-05-04T08:02:58.087Z,101649.00
2023-05-04T08:03:49.565Z,101652.47
2023-05-04T08:04:41.097Z,101656.75
2023-05-04T08:05:32.723Z,101652.19
2023-05-04T08:06:24.212Z,101647.25
2023-05-04T08:07:17.059Z,101649.88
2023-05-04T08:08:09.035Z,101655.19
2023-05-04T08:09:00.497Z,101641.47
2023-05-04T08:09:53.850Z,101646.13
2023-05-04T08:10:45.371Z,101640.88
2023-05-04T08:11:37.535Z,101644.41
2023-05-04T08:12:29.050Z,101642.78
2023-05-04T08:13:20.631Z,101644.47
2023-05-04T08:14:12.071Z,101648.81
2023-05-04T08:15:06.029Z,101648.91
2023-05-04T08:16:01.415Z,101641.50
2023-05-04T08:16:52.892Z,101638.19
2023-05-04T08:17:44.444Z,101637.22
2023-05-04T08:18:36.999Z,101636.28
2023-05-04T08:19:28.459Z,101642.63
2023-05-04T08:20:21.172Z,101639.00
2023-05-04T08:21:14.645Z,101634.22
2023-05-04T08:22:07.847Z,101636.72
2023-05-04T08:23:03.905Z,101633.22
2023-05-04T08:23:55.856Z,101634.84
2023-05-04T08:24:47.392Z,101634.00
2023-05-04T08:25:39.357Z,101634.78
2023-05-04T08:26:31.060Z,101636.59
2023-05-04T08:27:22.491Z,101628.97
2023-05-04T08:28:14.211Z,101626.41
2023-05-04T08:29:07.842Z,101624.88
2023-05-04T08:29:59.376Z,101623.22
2023-05-04T08:30:50.807Z,101624.22
2023-05-04T08:31:42.343Z,101622.31
2023-05-04T08:32:33.925Z,101621.34
2023-05-04T08:33:25.486Z,101620.38
2023-05-04T08:34:19.500Z,101631.28
2023-05-04T08:35:11.078Z,101628.84
2023-05-04T08:36:04.408Z,101629.91
2023-05-04T08:36:56.386Z,101620.22
2023-05-04T08:37:48.054Z,101630.31
2023-05-04T08:38:39.522Z,101618.81
2023-05-04T08:39:31.163Z,101621.34
2023-05-04T08:40:24.006Z,101630.81
2023-05-04T08:41:16.544Z,101623.97
2023-05-04T08:42:10.776Z,101618.06
2023-05-04T08:43:04.664Z,101616.25
2023-05-04T08:43:56.165Z,101619.19
2023-05-04T08:44:47.592Z,101614.81
2023-05-04T08:45:40.296Z,101619.13
2023-05-04T08:46:32.648Z,101617.34
2023-05-04T08:47:25.488Z,101608.75
2023-05-04T08:48:17.012Z,101608.59
2023-05-04T08:49:08.611Z,101612.91
2023-05-04T08:50:00.894Z,101615.56
2023-05-04T08:50:52.955Z,101615.47
2023-05-04T08:51:47.554Z,101606.56
2023-05-04T08:52:45.080Z,101606.75
2023-05-04T08:53:41.116Z,101608.56
2023-05-04T08:54:39.607Z,101611.94
2023-05-04T08:55:35.722Z,101607.56
2023-05-04T08:56:27.221Z,101612.13
2023-05-04T08:57:21.492Z,101611.13
2023-05-04T08:58:16.381Z,101598.78
2023-05-04T08:59:17.197Z,101606.13
2023-05-04T09:00:10.894Z,101601.63
2023-05-04T09:01:02.781Z,101606.03
2023-05-04T09:01:59.081Z,101600.22
2023-05-04T09:02:51.338Z,101605.34
2023-05-04T09:03:45.051Z,101598.28
2023-05-04T09:04:36.880Z,101612.47
2023-05-04T09:05:28.816Z,101601.81
2023-05-04T09:06:20.705Z,101600.81
2023-05-04T09:07:12.934Z,101597.31
2023-05-04T09:08:04.762Z,101598.22
2023-05-04T09:08:56.330Z,101599.88
2023-05-04T09:09:50.580Z,101601.53
2023-05-04T09:10:42.145Z,101597.09
2023-05-04T09:11:33.784Z,101591.81
2023-05-04T09:12:28.012Z,101593.50
2023-05-04T09:13:22.259Z,101594.34
2023-05-04T09:14:14.169Z,101595.25
2023-05-04T09:15:19.993Z,101597.03
2023-05-04T09:16:12.810Z,101589.53
2023-05-04T09:17:14.957Z,101599.16
2023-05-04T09:18:09.828Z,101593.72
2023-05-04T09:19:03.736Z,101593.69
2023-05-04T09:20:00.174Z,101595.44
2023-05-04T09:20:51.614Z,101595.59
2023-05-04T09:21:43.970Z,101589.66
2023-05-04T09:22:35.549Z,101587.25
2023-05-04T09:23:27.499Z,101589.81
2023-05-04T09:24:46.547Z,101587.16
2023-05-04T09:25:49.925Z,101588.97
2023-05-04T09:26:41.416Z,101596.09
2023-05-04T09:27:33.042Z,101588.16
2023-05-04T09:28:36.036Z,101589.94
2023-05-04T09:29:27.520Z,101593.41
2023-05-04T09:30:21.871Z,101592.50
2023-05-04T09:31:13.685Z,101595.28
2023-05-04T09:32:12.540Z,101589.16
2023-05-04T09:33:04.262Z,101583.88
2023-05-04T09:33:58.190Z,101590.94
2023-05-04T09:34:52.072Z,101589.03
2023-05-04T09:35:44.543Z,101591.59
2023-05-04T09:36:36.404Z,101586.28
2023-05-04T09:37:28.064Z,101580.13
2023-05-04T09:38:31.598Z,101579.28
2023-05-04T09:39:27.829Z,101578.41
2023-05-04T09:40:41.004Z,101580.19
2023-05-04T09:41:33.370Z,101580.34
2023-05-04T09:42:27.004Z,101571.56
2023-05-04T09:43:18.832Z,101566.34
2023-05-04T09:44:26.922Z,101561.97
2023-05-04T09:45:20.233Z,101562.72
2023-05-04T09:46:19.312Z,101556.50
2023-05-04T09:47:12.951Z,101551.13
2023-05-04T09:48:16.577Z,101550.19
2023-05-04T09:49:08.186Z,101544.22
2023-05-04T09:50:11.554Z,101542.50
2023-05-04T09:51:04.209Z,101546.06
2023-05-04T09:51:58.714Z,101546.91
2023-05-04T09:52:50.802Z,101547.88
2023-05-04T09:53:43.145Z,101546.97
2023-05-04T09:54:36.055Z,101547.06
2023-05-04T09:55:28.632Z,101548.00
2023-05-04T09:56:32.141Z,101544.53
2023-05-04T09:57:24.335Z,101541.13
2023-05-04T09:58:18.211Z,101544.78
2023-05-04T09:59:10.167Z,101542.06
2023-05-04T10:00:04.592Z,101533.31
2023-05-04T10:01:01.401Z,101540.28
2023-05-04T10:01:54.113Z,101538.47
2023-05-04T10:02:47.132Z,101532.31
2023-05-04T10:03:38.759Z,101532.38
2023-05-04T10:04:33.511Z,101528.81